• Join FlightAware (Why Join?)
  • Login
  • US Flag 
05:34PM EDT


 

Airport Tracker/Info


-or-


 

Live Flight TrackerFlight Track Log ✈ UAL3842 ✈ 25-Sep-2013 ✈ KCLT - KEWR

Flight Track Log - Related Links

Times and Time Zones

All times are in EDT time to prevent confusion due to time zone crossing. See the UAL3842 flight status page for this flight to view local times or setup timezone preferences in your user account.

Time Position Orientation Groundspeed Altitude Reporting Facility
EDT Latitude Longitude Course Direction KTS MPH feet Rate Location/Type
07:06PM 35.1972 -80.9381 95° East 167 192 1,300  Level Atlanta Center
07:07PM 35.1489 -80.9297 172° South 189 217 2,900 1,740 Climbing Atlanta Center
07:08PM 35.1097 -80.8600 124° Southeast 267 307 4,700 1,800 Climbing Atlanta Center
07:09PM 35.1472 -80.7875 58° Northeast 288 331 6,600 1,920 Climbing Atlanta Center
07:09PM 35.1511 -80.7747 70° East 285 328 6,900 2,280 Climbing Atlanta Center
07:10PM 35.4987 -80.6306 72° East  Level Estimated
07:10PM 35.1911 -80.7119 52° Northeast 291 335 8,700  Level Atlanta Center
07:10PM 35.1992 -80.6989 53° Northeast 285 328 9,200 1,620 Climbing Atlanta Center
07:11PM 35.5698 -80.5507 71° East  Level Estimated
07:11PM 35.2533 -80.6153 52° Northeast 299 344 10,700  Level Atlanta Center
07:12PM 35.5619 -80.4326 95° East  Level FlightAware Approximate
07:12PM 35.3008 -80.5319 55° Northeast 319 367 11,300  Level Atlanta Center
07:14PM 35.3875 -80.2925 66° East 376 433 13,800 1,260 Climbing Washington Center
07:15PM 35.4239 -80.1672 70° East 387 445 15,000 1,080 Climbing Washington Center
07:16PM 35.4600 -80.0394 71° East 393 452 16,000 1,020 Climbing Washington Center
07:17PM 35.4942 -79.9061 72° East 398 458 17,100 900 Climbing Washington Center
07:18PM 35.5281 -79.7700 73° East 403 464 17,900 840 Climbing Washington Center
07:19PM 35.5594 -79.6492 72° East 403 464 18,800 960 Climbing Washington Center
07:20PM 35.5978 -79.5028 72° East 430 495 19,900 900 Climbing Washington Center
07:21PM 35.6375 -79.3694 70° East 430 495 20,700 780 Climbing Washington Center
07:22PM 35.6939 -79.2339 63° Northeast 430 495 21,500 900 Climbing Washington Center
07:23PM 35.7883 -79.1436 38° Northeast 420 483 22,500 1,080 Climbing Washington Center
07:24PM 35.8947 -79.0689 30° Northeast 420 483 23,700 1,140 Climbing Washington Center
07:25PM 35.9972 -78.9911 32° Northeast 425 489 24,800 1,080 Climbing Washington Center
07:26PM 36.0994 -78.9158 31° Northeast 425 489 26,000 1,140 Climbing Washington Center
07:27PM 36.2017 -78.8431 30° Northeast 425 489 27,200 1,140 Climbing Washington Center
07:28PM 36.3017 -78.7672 31° Northeast 425 489 28,300 1,020 Climbing Washington Center
07:29PM 36.4061 -78.6914 30° Northeast 425 489 29,300 1,080 Climbing Washington Center
07:30PM 36.5039 -78.6128 33° Northeast 425 489 30,500 1,140 Climbing Washington Center
07:31PM 36.6039 -78.5414 30° Northeast 420 483 31,700 1,140 Climbing Washington Center
07:32PM 36.7058 -78.4625 32° Northeast 420 483 32,800 1,080 Climbing Washington Center
07:33PM 36.8036 -78.3856 32° Northeast 420 483 33,900 1,080 Climbing Washington Center
07:34PM 36.9036 -78.3089 32° Northeast 420 483 35,000 540 Climbing Washington Center
07:35PM 37.0181 -78.2217 31° Northeast 427 491 35,000  Level Washington Center
07:36PM 37.1178 -78.1469 31° Northeast 443 510 35,000  Level Washington Center
07:37PM 37.2281 -78.0594 32° Northeast 456 525 35,000  Level Washington Center
07:38PM 37.3467 -77.9692 31° Northeast 475 547 35,000  Level Washington Center
07:39PM 37.4611 -77.8811 31° Northeast 480 552 35,000  Level Washington Center
07:40PM 37.5733 -77.7903 33° Northeast 480 552 35,000  Level Washington Center
07:41PM 37.6794 -77.6936 36° Northeast 475 547 35,000  Level Washington Center
07:42PM 37.7831 -77.5992 36° Northeast 475 547 35,000  Level Washington Center
07:43PM 37.8889 -77.5019 36° Northeast 470 541 35,000  Level Washington Center
07:44PM 37.9947 -77.4072 35° Northeast 465 535 35,000  Level Washington Center
07:45PM 38.1111 -77.2992 36° Northeast 456 525 35,000  Level Washington Center
07:46PM 38.2189 -77.1986 36° Northeast 461 531 35,000  Level Washington Center
07:47PM 38.3264 -77.0950 37° Northeast 482 555 35,000  Level Washington Center
07:48PM 38.4381 -76.9967 35° Northeast 482 555 35,000  Level Washington Center
07:49PM 38.5478 -76.8925 37° Northeast 482 555 35,000  Level Washington Center
07:50PM 38.6572 -76.7881 37° Northeast 482 555 35,000  Level Washington Center
07:51PM 38.7625 -76.6778 39° Northeast 491 565 35,000 -60 Level Washington Center
07:52PM 38.8636 -76.5647 41° Northeast 480 552 34,900 -1,260 Descending Washington Center
07:53PM 38.9625 -76.4486 42° Northeast 480 552 32,600 -2,400 Descending Washington Center
07:54PM 39.0569 -76.3375 42° Northeast 468 539 30,100 -2,520 Descending Washington Center
07:55PM 39.1472 -76.2314 42° Northeast 451 519 27,700 -1,560 Descending Washington Center
07:56PM 39.2436 -76.1250 41° Northeast 451 519 27,000 -360 Descending Washington Center
07:57PM 39.3358 -76.0156 43° Northeast 446 513 27,000 -660 Level Washington Center
07:58PM 39.4278 -75.9058 43° Northeast 446 513 25,700 -1,380 Descending Washington Center
07:59PM 39.5239 -75.7933 42° Northeast 451 519 24,300 -1,680 Descending Washington Center
08:00PM 39.6136 -75.6858 43° Northeast 451 519 22,400 -1,800 Descending Washington Center
08:01PM 39.7053 -75.5781 42° Northeast 446 513 20,800 -1,200 Descending Washington Center
08:02PM 39.7822 -75.4861 43° Northeast 440 506 20,100 -1,380 Descending Washington Center
08:03PM 39.8656 -75.3833 43° Northeast 421 484 18,100 -2,160 Descending Washington Center
08:04PM 39.9506 -75.2831 42° Northeast 415 478 15,800 -2,280 Descending Washington Center
08:05PM 40.0294 -75.1822 44° Northeast 410 472 13,600 -1,980 Descending Washington Center
08:07PM 40.1500 -75.0333 43° Northeast 302 348 10,700 -1,740 Descending New York TRACON
08:08PM 40.2167 -74.9667 37° Northeast 282 325 9,100 -1,200 Descending New York TRACON
08:09PM 40.2667 -74.8833 52° Northeast 277 319 8,400 -660 Descending New York TRACON
08:10PM 40.3167 -74.8167 45° Northeast 272 313 7,800 -1,200 Descending New York TRACON
08:11PM 40.3667 -74.7500 45° Northeast 260 299 6,100 -900 Descending New York TRACON
08:12PM 40.4167 -74.6833 45° Northeast 251 289 6,000 -60 Descending New York TRACON
08:13PM 40.4833 -74.6500 21° North 264 304 6,000  Level New York TRACON
08:14PM 40.5500 -74.6333 11° North 260 299 6,000  Level New York TRACON
08:15PM 40.6167 -74.6167 11° North 268 308 6,000 -120 Level New York TRACON
08:16PM 40.6833 -74.5667 30° Northeast 264 304 5,800 -360 Descending New York TRACON
08:18PM 40.8000 -74.4667 33° Northeast 252 290 5,000 -300 Descending New York TRACON
08:19PM 40.8667 -74.4167 30° Northeast 258 297 5,000 -180 Level New York TRACON
08:20PM 40.9000 -74.3500 57° Northeast 264 304 4,700 -540 Descending New York TRACON
08:21PM 40.9167 -74.2500 78° East 258 297 4,000 -360 Descending New York TRACON
08:22PM 40.9000 -74.1667 105° East 265 305 4,000 -600 Level New York TRACON
08:23PM 40.8667 -74.0833 118° Southeast 267 307 2,800 -900 Descending New York TRACON
08:24PM 40.8000 -74.1000 191° South 230 265 2,200 -840 Descending New York TRACON
08:25PM 40.7500 -74.1333 207° Southwest 166 191 1,200 -900 Descending New York TRACON
08:26PM 40.7167 -74.1500 201° Southwest 141 162 500 -780 Descending New York TRACON